createdAt,value
2022-11-26T00:00:08.460Z,1017.11
2022-11-26T00:01:08.436Z,1017.14
2022-11-26T00:02:08.466Z,1017.13
2022-11-26T00:03:08.563Z,1017.13
2022-11-26T00:04:08.355Z,1017.11
2022-11-26T00:05:08.332Z,1017.12
2022-11-26T00:06:08.301Z,1017.13
2022-11-26T00:07:08.289Z,1017.15
2022-11-26T00:08:08.269Z,1017.16
2022-11-26T00:09:08.224Z,1017.15
2022-11-26T00:10:08.196Z,1017.25
2022-11-26T00:11:08.171Z,1017.28
2022-11-26T00:12:08.157Z,1017.27
2022-11-26T00:13:08.119Z,1017.23
2022-11-26T00:14:08.090Z,1017.27
2022-11-26T00:15:08.079Z,1017.22
2022-11-26T00:16:08.084Z,1017.25
2022-11-26T00:17:08.011Z,1017.26
2022-11-26T00:18:07.986Z,1017.26
2022-11-26T00:19:07.959Z,1017.29
2022-11-26T00:20:07.930Z,1017.30
2022-11-26T00:21:07.904Z,1017.31
2022-11-26T00:22:07.877Z,1017.29
2022-11-26T00:23:07.851Z,1017.33
2022-11-26T00:24:07.839Z,1017.34
2022-11-26T00:25:07.799Z,1017.32
2022-11-26T00:26:07.770Z,1017.29
2022-11-26T00:27:07.747Z,1017.31
2022-11-26T00:28:07.719Z,1017.32
2022-11-26T00:29:07.693Z,1017.32
2022-11-26T00:30:07.663Z,1017.34
2022-11-26T00:31:07.639Z,1017.33
2022-11-26T00:32:07.646Z,1017.34
2022-11-26T00:33:07.586Z,1017.39
2022-11-26T00:34:07.557Z,1017.39
2022-11-26T00:35:07.533Z,1017.38
2022-11-26T00:36:07.506Z,1017.39
2022-11-26T00:37:07.480Z,1017.42
2022-11-26T00:38:07.453Z,1017.43
2022-11-26T00:39:07.427Z,1017.40
2022-11-26T00:40:07.415Z,1017.45
2022-11-26T00:41:07.373Z,1017.47
2022-11-26T00:42:07.342Z,1017.46
2022-11-26T00:43:07.322Z,1017.48
2022-11-26T00:44:07.295Z,1017.50
2022-11-26T00:45:07.265Z,1017.52
2022-11-26T00:46:07.276Z,1017.50
2022-11-26T00:47:07.211Z,1017.55
2022-11-26T00:48:07.186Z,1017.53
2022-11-26T00:49:07.158Z,1017.57
2022-11-26T00:50:07.132Z,1017.53
2022-11-26T00:51:07.105Z,1017.51
2022-11-26T00:52:07.079Z,1017.55
2022-11-26T00:53:07.052Z,1017.51
2022-11-26T00:54:07.024Z,1017.54
2022-11-26T00:55:07.000Z,1017.53
2022-11-26T00:56:06.994Z,1017.58
2022-11-26T00:57:06.945Z,1017.54
2022-11-26T00:58:06.918Z,1017.55
2022-11-26T00:59:06.895Z,1017.59
2022-11-26T01:00:06.864Z,1017.63
2022-11-26T01:01:06.892Z,1017.62
2022-11-26T01:02:06.870Z,1017.67
2022-11-26T01:03:06.786Z,1017.70
2022-11-26T01:04:06.757Z,1017.74
2022-11-26T01:05:06.737Z,1017.77
2022-11-26T01:06:06.703Z,1017.79
2022-11-26T01:07:06.677Z,1017.81
2022-11-26T01:08:06.650Z,1017.82
2022-11-26T01:09:06.626Z,1017.85
2022-11-26T01:10:06.597Z,1017.89
2022-11-26T01:11:06.571Z,1017.83
2022-11-26T01:12:06.562Z,1017.87
2022-11-26T01:13:06.523Z,1017.85
2022-11-26T01:14:06.489Z,1017.82
2022-11-26T01:15:06.465Z,1017.83
2022-11-26T01:16:06.449Z,1017.85
2022-11-26T01:17:06.414Z,1017.86
2022-11-26T01:18:06.382Z,1017.85
2022-11-26T01:19:06.359Z,1017.86
2022-11-26T01:20:06.329Z,1017.94
2022-11-26T01:21:06.321Z,1017.94
2022-11-26T01:23:13.753Z,1017.95
2022-11-26T01:24:13.722Z,1017.99
2022-11-26T01:25:13.698Z,1018.00
2022-11-26T01:26:13.668Z,1018.00
2022-11-26T01:27:13.661Z,1018.05
2022-11-26T01:28:13.615Z,1018.08
2022-11-26T01:29:13.589Z,1018.10
2022-11-26T01:30:13.560Z,1018.08
2022-11-26T01:31:13.596Z,1018.11
2022-11-26T01:32:13.507Z,1018.12
2022-11-26T01:33:13.487Z,1018.16
2022-11-26T01:34:13.460Z,1018.18
2022-11-26T01:35:13.428Z,1018.12
2022-11-26T01:36:13.401Z,1018.14
2022-11-26T01:37:13.371Z,1018.18
2022-11-26T01:38:13.344Z,1018.22
2022-11-26T01:39:13.321Z,1018.17
2022-11-26T01:40:13.292Z,1018.22
2022-11-26T01:41:13.267Z,1018.22
2022-11-26T01:42:13.238Z,1018.19
2022-11-26T01:43:13.229Z,1018.21
2022-11-26T01:44:13.191Z,1018.22
2022-11-26T01:45:13.156Z,1018.21
2022-11-26T01:46:13.195Z,1018.23
2022-11-26T01:47:13.103Z,1018.25
2022-11-26T01:48:13.076Z,1018.24
2022-11-26T01:49:13.049Z,1018.20
2022-11-26T01:50:13.022Z,1018.19
2022-11-26T01:51:12.996Z,1018.24
2022-11-26T01:52:12.968Z,1018.20
2022-11-26T01:53:12.939Z,1018.22
2022-11-26T01:54:12.913Z,1018.19
2022-11-26T01:55:12.892Z,1018.23
2022-11-26T01:56:12.862Z,1018.19
2022-11-26T01:57:12.834Z,1018.17
2022-11-26T01:58:12.804Z,1018.20
2022-11-26T01:59:12.800Z,1018.20
2022-11-26T02:00:12.750Z,1018.22
2022-11-26T02:01:12.852Z,1018.23
2022-11-26T02:02:12.745Z,1018.23
2022-11-26T02:03:12.672Z,1018.23
2022-11-26T02:04:12.643Z,1018.24
2022-11-26T02:05:12.620Z,1018.28
2022-11-26T02:06:12.587Z,1018.24
2022-11-26T02:07:12.614Z,1018.27
2022-11-26T02:08:12.537Z,1018.23
2022-11-26T02:09:12.507Z,1018.29
2022-11-26T02:10:12.477Z,1018.25
2022-11-26T02:11:12.456Z,1018.32
2022-11-26T02:12:12.426Z,1018.32
2022-11-26T02:13:12.399Z,1018.33
2022-11-26T02:14:12.374Z,1018.34
2022-11-26T02:15:12.362Z,1018.36
2022-11-26T02:16:12.367Z,1018.36
2022-11-26T02:17:12.294Z,1018.37
2022-11-26T02:18:12.263Z,1018.35
2022-11-26T02:19:12.239Z,1018.30
2022-11-26T02:20:12.209Z,1018.35
2022-11-26T02:21:12.186Z,1018.37
2022-11-26T02:22:12.156Z,1018.34
2022-11-26T02:23:12.135Z,1018.31
2022-11-26T02:24:12.102Z,1018.30
2022-11-26T02:25:12.075Z,1018.30
2022-11-26T02:26:12.046Z,1018.25
2022-11-26T02:27:12.026Z,1018.30
2022-11-26T02:28:11.993Z,1018.27
2022-11-26T02:29:11.966Z,1018.30
2022-11-26T02:30:11.940Z,1018.31
2022-11-26T02:31:11.996Z,1018.32
2022-11-26T02:32:11.924Z,1018.30
2022-11-26T02:33:11.859Z,1018.29
2022-11-26T02:34:11.838Z,1018.29
2022-11-26T02:35:11.804Z,1018.31
2022-11-26T02:36:11.776Z,1018.30
2022-11-26T02:37:11.749Z,1018.30
2022-11-26T02:38:11.721Z,1018.30
2022-11-26T02:39:11.695Z,1018.28
2022-11-26T02:40:11.667Z,1018.26
2022-11-26T02:41:11.644Z,1018.29
2022-11-26T02:42:11.611Z,1018.26
2022-11-26T02:43:11.588Z,1018.28
2022-11-26T02:44:11.558Z,1018.34
2022-11-26T02:45:11.533Z,1018.32
2022-11-26T02:46:11.629Z,1018.34
2022-11-26T02:47:11.499Z,1018.35
2022-11-26T02:48:11.449Z,1018.34
2022-11-26T02:49:11.425Z,1018.32
2022-11-26T02:50:11.397Z,1018.32
2022-11-26T02:51:11.373Z,1018.33
2022-11-26T02:52:11.344Z,1018.35
2022-11-26T02:53:11.319Z,1018.31
2022-11-26T02:54:11.294Z,1018.33
2022-11-26T02:55:11.265Z,1018.29
2022-11-26T02:56:11.238Z,1018.30
2022-11-26T02:57:11.213Z,1018.30
2022-11-26T02:58:11.181Z,1018.33
2022-11-26T02:59:11.154Z,1018.29
2022-11-26T03:00:11.130Z,1018.35
2022-11-26T03:01:11.174Z,1018.35
2022-11-26T03:02:11.071Z,1018.34
2022-11-26T03:03:11.065Z,1018.35
2022-11-26T03:04:11.073Z,1018.32
2022-11-26T03:05:10.993Z,1018.33
2022-11-26T03:06:10.968Z,1018.28
2022-11-26T03:07:10.970Z,1018.28
2022-11-26T03:08:10.912Z,1018.26
2022-11-26T03:09:10.887Z,1018.26
2022-11-26T03:10:10.862Z,1018.24
2022-11-26T03:11:10.832Z,1018.22
2022-11-26T03:12:10.878Z,1018.20
2022-11-26T03:13:10.779Z,1018.19
2022-11-26T03:14:10.749Z,1018.22
2022-11-26T03:15:10.729Z,1018.20
2022-11-26T03:16:10.747Z,1018.19
2022-11-26T03:17:10.672Z,1018.25
2022-11-26T03:18:10.643Z,1018.27
2022-11-26T03:19:10.638Z,1018.29
2022-11-26T03:20:10.591Z,1018.31
2022-11-26T03:21:10.563Z,1018.35
2022-11-26T03:22:10.534Z,1018.33
2022-11-26T03:23:10.515Z,1018.32
2022-11-26T03:24:10.483Z,1018.33
2022-11-26T03:25:10.456Z,1018.34
2022-11-26T03:26:10.429Z,1018.39
2022-11-26T03:27:10.403Z,1018.37
2022-11-26T03:28:10.378Z,1018.37
2022-11-26T03:29:10.349Z,1018.37
2022-11-26T03:30:10.328Z,1018.43
2022-11-26T03:31:10.301Z,1018.46
2022-11-26T03:32:10.268Z,1018.47
2022-11-26T03:33:10.251Z,1018.49
2022-11-26T03:34:10.213Z,1018.48
2022-11-26T03:35:10.211Z,1018.45
2022-11-26T03:36:10.163Z,1018.46
2022-11-26T03:37:10.136Z,1018.47
2022-11-26T03:38:10.104Z,1018.42
2022-11-26T03:39:10.083Z,1018.48
2022-11-26T03:40:10.052Z,1018.47
2022-11-26T03:41:10.026Z,1018.47
2022-11-26T03:42:09.998Z,1018.46
2022-11-26T03:43:09.973Z,1018.46
2022-11-26T03:44:09.943Z,1018.48
2022-11-26T03:45:09.918Z,1018.53
2022-11-26T03:46:09.921Z,1018.52
2022-11-26T03:47:09.866Z,1018.55
2022-11-26T03:48:09.838Z,1018.58
2022-11-26T03:49:09.811Z,1018.56
2022-11-26T03:50:09.784Z,1018.56
2022-11-26T03:51:09.775Z,1018.54
2022-11-26T03:52:09.739Z,1018.52
2022-11-26T03:53:09.705Z,1018.53
2022-11-26T03:54:09.674Z,1018.52
2022-11-26T03:55:09.647Z,1018.58
2022-11-26T03:56:09.623Z,1018.59
2022-11-26T03:57:09.595Z,1018.61
2022-11-26T03:58:09.566Z,1018.61
2022-11-26T03:59:09.542Z,1018.64
2022-11-26T04:00:09.510Z,1018.66
2022-11-26T04:01:09.541Z,1018.64
2022-11-26T04:02:09.457Z,1018.63
2022-11-26T04:03:09.498Z,1018.70
2022-11-26T04:04:09.404Z,1018.67
2022-11-26T04:05:09.377Z,1018.68
2022-11-26T04:06:09.348Z,1018.74
2022-11-26T04:07:09.420Z,1018.75
2022-11-26T04:08:09.295Z,1018.78
2022-11-26T04:09:09.276Z,1018.78
2022-11-26T04:10:09.253Z,1018.80
2022-11-26T04:11:09.218Z,1018.80
2022-11-26T04:12:09.191Z,1018.84
2022-11-26T04:13:09.162Z,1018.86
2022-11-26T04:14:09.135Z,1018.89
2022-11-26T04:15:09.105Z,1018.90
2022-11-26T04:16:09.160Z,1018.89
2022-11-26T04:17:09.053Z,1018.92
2022-11-26T04:18:09.027Z,1018.92
2022-11-26T04:19:09.001Z,1018.96
2022-11-26T04:20:08.975Z,1018.98
2022-11-26T04:21:08.945Z,1018.98
2022-11-26T04:22:08.916Z,1019.01
2022-11-26T04:23:08.906Z,1019.01
2022-11-26T04:24:08.862Z,1019.03
2022-11-26T04:25:08.838Z,1019.07
2022-11-26T04:26:08.807Z,1019.10
2022-11-26T04:27:08.783Z,1019.11
2022-11-26T04:28:08.755Z,1019.11
2022-11-26T04:29:08.730Z,1019.10
2022-11-26T04:30:08.699Z,1019.12
2022-11-26T04:31:08.677Z,1019.13
2022-11-26T04:32:08.730Z,1019.12
2022-11-26T04:33:08.618Z,1019.14
2022-11-26T04:34:08.596Z,1019.16
2022-11-26T04:35:08.564Z,1019.15
2022-11-26T04:36:08.537Z,1019.17
2022-11-26T04:37:08.512Z,1019.18
2022-11-26T04:38:08.483Z,1019.18
2022-11-26T04:39:08.476Z,1019.21
2022-11-26T04:40:08.429Z,1019.20
2022-11-26T04:41:08.405Z,1019.21
2022-11-26T04:42:08.379Z,1019.20
2022-11-26T04:43:08.351Z,1019.24
2022-11-26T04:44:08.322Z,1019.24
2022-11-26T04:45:08.294Z,1019.23
2022-11-26T04:46:08.325Z,1019.22
2022-11-26T04:47:08.242Z,1019.28
2022-11-26T04:48:08.211Z,1019.24
2022-11-26T04:49:08.189Z,1019.27
2022-11-26T04:50:08.160Z,1019.37
2022-11-26T04:51:08.136Z,1019.34
2022-11-26T04:52:08.105Z,1019.37
2022-11-26T04:53:08.079Z,1019.37
2022-11-26T04:54:12.746Z,1019.41
2022-11-26T04:55:08.045Z,1019.39
2022-11-26T04:56:07.994Z,1019.42
2022-11-26T04:57:07.969Z,1019.42
2022-11-26T04:58:07.940Z,1019.45
2022-11-26T04:59:07.916Z,1019.49
2022-11-26T05:00:07.886Z,1019.51
2022-11-26T05:01:07.910Z,1019.49
2022-11-26T05:02:07.830Z,1019.49
2022-11-26T05:03:07.953Z,1019.50
2022-11-26T05:04:07.776Z,1019.53
2022-11-26T05:05:07.749Z,1019.53
2022-11-26T05:06:07.723Z,1019.50
2022-11-26T05:07:07.783Z,1019.51
2022-11-26T05:08:07.667Z,1019.52
2022-11-26T05:09:07.643Z,1019.54
2022-11-26T05:10:07.612Z,1019.56
2022-11-26T05:11:07.606Z,1019.59
2022-11-26T05:12:07.557Z,1019.59
2022-11-26T05:13:07.534Z,1019.60
2022-11-26T05:14:07.504Z,1019.61
2022-11-26T05:15:07.478Z,1019.59
2022-11-26T05:16:07.497Z,1019.61
2022-11-26T05:17:07.423Z,1019.59
2022-11-26T05:18:07.396Z,1019.58
2022-11-26T05:19:07.369Z,1019.62
2022-11-26T05:20:07.342Z,1019.64
2022-11-26T05:21:07.314Z,1019.64
2022-11-26T05:22:07.283Z,1019.63
2022-11-26T05:23:07.266Z,1019.70
2022-11-26T05:24:07.230Z,1019.66
2022-11-26T05:25:07.209Z,1019.68
2022-11-26T05:26:07.181Z,1019.68
2022-11-26T05:27:07.168Z,1019.71
2022-11-26T05:28:07.121Z,1019.74
2022-11-26T05:29:07.096Z,1019.70
2022-11-26T05:30:07.066Z,1019.70
2022-11-26T05:31:07.041Z,1019.69
2022-11-26T05:32:07.079Z,1019.64
2022-11-26T05:33:06.984Z,1019.68
2022-11-26T05:34:06.962Z,1019.71
2022-11-26T05:35:06.930Z,1019.72
2022-11-26T05:36:06.903Z,1019.74
2022-11-26T05:37:06.874Z,1019.73
2022-11-26T05:38:06.849Z,1019.72
2022-11-26T05:39:06.819Z,1019.73
2022-11-26T05:40:06.795Z,1019.69
2022-11-26T05:41:06.763Z,1019.76
2022-11-26T05:42:09.344Z,1019.75
2022-11-26T05:43:06.727Z,1019.75
2022-11-26T05:44:06.684Z,1019.75
2022-11-26T05:45:06.655Z,1019.79
2022-11-26T05:46:06.728Z,1019.76
2022-11-26T05:47:06.621Z,1019.78
2022-11-26T05:48:06.578Z,1019.79
2022-11-26T05:49:06.544Z,1019.77
2022-11-26T05:50:06.531Z,1019.77
2022-11-26T05:51:06.490Z,1019.78
2022-11-26T05:52:06.464Z,1019.79
2022-11-26T05:53:06.435Z,1019.80
2022-11-26T05:54:06.409Z,1019.80
2022-11-26T05:55:06.380Z,1019.80
2022-11-26T05:56:06.355Z,1019.85
2022-11-26T05:57:06.330Z,1019.86
2022-11-26T05:58:06.299Z,1019.89
2022-11-26T05:59:06.292Z,1019.84
2022-11-26T06:00:06.243Z,1019.88
2022-11-26T06:01:06.215Z,1019.84
2022-11-26T06:02:06.271Z,1019.91
2022-11-26T06:03:06.266Z,1019.90
2022-11-26T06:04:06.136Z,1019.86
2022-11-26T06:05:06.103Z,1019.84
2022-11-26T06:06:06.080Z,1019.90
2022-11-26T06:07:06.053Z,1019.87
2022-11-26T06:08:06.023Z,1019.91
2022-11-26T06:09:05.996Z,1019.92
2022-11-26T06:10:05.972Z,1019.89
2022-11-26T06:11:05.940Z,1019.88
2022-11-26T06:12:05.915Z,1019.91
2022-11-26T06:13:05.886Z,1019.94
2022-11-26T06:14:05.857Z,1019.97
2022-11-26T06:15:05.848Z,1019.99
2022-11-26T06:16:05.832Z,1019.98
2022-11-26T06:17:05.776Z,1019.98
2022-11-26T06:18:05.750Z,1020.03
2022-11-26T06:19:05.722Z,1020.05
2022-11-26T06:20:05.699Z,1020.05
2022-11-26T06:21:05.665Z,1020.01
2022-11-26T06:22:05.638Z,1020.03
2022-11-26T06:23:05.614Z,1020.07
2022-11-26T06:24:05.589Z,1020.10
2022-11-26T06:25:05.556Z,1020.09
2022-11-26T06:26:05.530Z,1020.12
2022-11-26T06:27:05.500Z,1020.13
2022-11-26T06:28:05.476Z,1020.13
2022-11-26T06:29:05.446Z,1020.12
2022-11-26T06:30:05.419Z,1020.11
2022-11-26T06:31:05.455Z,1020.12
2022-11-26T06:32:05.362Z,1020.12
2022-11-26T06:33:05.334Z,1020.11
2022-11-26T06:34:05.307Z,1020.10
2022-11-26T06:35:05.286Z,1020.08
2022-11-26T06:36:05.259Z,1020.09
2022-11-26T06:37:05.222Z,1020.08
2022-11-26T06:38:05.200Z,1020.08
2022-11-26T06:39:05.171Z,1020.08
2022-11-26T06:40:05.144Z,1020.14
2022-11-26T06:41:05.139Z,1020.11
2022-11-26T06:42:05.092Z,1020.16
2022-11-26T06:43:05.061Z,1020.15
2022-11-26T06:44:05.035Z,1020.16
2022-11-26T06:45:05.009Z,1020.16
2022-11-26T06:46:05.089Z,1020.16
2022-11-26T06:47:04.969Z,1020.17
2022-11-26T06:48:04.923Z,1020.17
2022-11-26T06:49:04.897Z,1020.21
2022-11-26T06:50:10.453Z,1020.17
2022-11-26T06:51:04.841Z,1020.19
2022-11-26T06:52:04.817Z,1020.21
2022-11-26T06:53:04.786Z,1020.19
2022-11-26T06:54:04.762Z,1020.28
2022-11-26T06:55:04.733Z,1020.27
2022-11-26T06:56:04.707Z,1020.27
2022-11-26T06:57:04.675Z,1020.28
2022-11-26T06:58:04.651Z,1020.30
2022-11-26T06:59:04.620Z,1020.25
2022-11-26T07:00:04.599Z,1020.29
2022-11-26T07:01:04.590Z,1020.33
2022-11-26T07:02:04.707Z,1020.29
2022-11-26T07:03:04.530Z,1020.32
2022-11-26T07:04:04.484Z,1020.32
2022-11-26T07:05:04.456Z,1020.30
2022-11-26T07:06:04.432Z,1020.35
2022-11-26T07:07:04.399Z,1020.31
2022-11-26T07:08:04.377Z,1020.37
2022-11-26T07:09:04.344Z,1020.37
2022-11-26T07:10:04.320Z,1020.40
2022-11-26T07:11:04.293Z,1020.38
2022-11-26T07:12:04.269Z,1020.37
2022-11-26T07:13:04.235Z,1020.41
2022-11-26T07:14:04.211Z,1020.42
2022-11-26T07:15:04.181Z,1020.42
2022-11-26T07:16:04.207Z,1020.44
2022-11-26T07:17:04.128Z,1020.47
2022-11-26T07:18:04.099Z,1020.47
2022-11-26T07:19:04.087Z,1020.46
2022-11-26T07:20:04.044Z,1020.48
2022-11-26T07:21:04.015Z,1020.49
2022-11-26T07:22:03.994Z,1020.48
2022-11-26T07:23:03.961Z,1020.47
2022-11-26T07:24:03.935Z,1020.45
2022-11-26T07:25:08.125Z,1020.50
2022-11-26T07:26:03.879Z,1020.49
2022-11-26T07:27:03.849Z,1020.45
2022-11-26T07:28:03.825Z,1020.47
2022-11-26T07:29:03.795Z,1020.47
2022-11-26T07:30:03.768Z,1020.46
2022-11-26T07:31:03.810Z,1020.47
2022-11-26T07:32:03.807Z,1020.43
2022-11-26T07:33:03.683Z,1020.43
2022-11-26T07:34:03.660Z,1020.42
2022-11-26T07:35:03.658Z,1020.42
2022-11-26T07:36:03.605Z,1020.45
2022-11-26T07:37:03.571Z,1020.43
2022-11-26T07:38:03.548Z,1020.47
2022-11-26T07:39:03.524Z,1020.52
2022-11-26T07:40:03.500Z,1020.52
2022-11-26T07:41:03.461Z,1020.56
2022-11-26T07:42:03.439Z,1020.53
2022-11-26T07:43:03.407Z,1020.61
2022-11-26T07:44:03.380Z,1020.60
2022-11-26T07:45:03.352Z,1020.62
2022-11-26T07:46:03.390Z,1020.61
2022-11-26T07:47:03.298Z,1020.67
2022-11-26T07:48:03.276Z,1020.65
2022-11-26T07:49:03.242Z,1020.66
2022-11-26T07:50:03.215Z,1020.66
2022-11-26T07:51:03.209Z,1020.71
2022-11-26T07:52:03.178Z,1020.70
2022-11-26T07:53:03.132Z,1020.73
2022-11-26T07:54:03.103Z,1020.72
2022-11-26T07:55:05.905Z,1020.77
2022-11-26T07:56:03.051Z,1020.78
2022-11-26T07:57:03.026Z,1020.83
2022-11-26T07:58:02.992Z,1020.79
2022-11-26T07:59:02.965Z,1020.85
2022-11-26T08:00:02.943Z,1020.85
2022-11-26T08:01:02.943Z,1020.89
2022-11-26T08:02:02.995Z,1020.91
2022-11-26T08:03:02.923Z,1020.93
2022-11-26T08:04:02.827Z,1020.95
2022-11-26T08:05:02.798Z,1020.97
2022-11-26T08:06:02.771Z,1020.90
2022-11-26T08:07:02.763Z,1020.89
2022-11-26T08:08:02.818Z,1020.91
2022-11-26T08:09:02.689Z,1020.94
2022-11-26T08:10:02.660Z,1020.96
2022-11-26T08:11:02.636Z,1020.95
2022-11-26T08:12:02.607Z,1020.97
2022-11-26T08:13:02.575Z,1021.06
2022-11-26T08:14:02.559Z,1021.03
2022-11-26T08:15:02.522Z,1021.05
2022-11-26T08:16:02.574Z,1021.07
2022-11-26T08:17:02.465Z,1021.07
2022-11-26T08:18:02.441Z,1021.11
2022-11-26T08:19:02.411Z,1021.12
2022-11-26T08:20:02.388Z,1021.13
2022-11-26T08:21:02.355Z,1021.09
2022-11-26T08:22:02.332Z,1021.09
2022-11-26T08:23:02.321Z,1021.11
2022-11-26T08:24:02.278Z,1021.09
2022-11-26T08:25:02.244Z,1021.09
2022-11-26T08:27:02.191Z,1021.15
2022-11-26T08:28:02.166Z,1021.15
2022-11-26T08:29:02.155Z,1021.17
2022-11-26T08:30:02.117Z,1021.19
2022-11-26T08:31:02.177Z,1021.16
2022-11-26T08:32:02.084Z,1021.13
2022-11-26T08:33:02.025Z,1021.12
2022-11-26T08:34:02.000Z,1021.13
2022-11-26T08:35:01.981Z,1021.16
2022-11-26T08:36:08.984Z,1021.10
2022-11-26T08:37:01.923Z,1021.10
2022-11-26T08:38:01.893Z,1021.12
2022-11-26T08:39:01.889Z,1021.12
2022-11-26T08:40:01.860Z,1021.08
2022-11-26T08:41:01.814Z,1021.10
2022-11-26T08:42:01.788Z,1021.07
2022-11-26T08:43:01.757Z,1021.03
2022-11-26T08:44:06.564Z,1021.06
2022-11-26T08:45:01.713Z,1021.11
2022-11-26T08:46:01.745Z,1021.06
2022-11-26T08:47:01.645Z,1021.04
2022-11-26T08:48:01.621Z,1021.05
2022-11-26T08:49:01.594Z,1021.05
2022-11-26T08:50:01.585Z,1021.07
2022-11-26T08:51:01.534Z,1021.06
2022-11-26T08:52:01.509Z,1021.04
2022-11-26T08:53:01.479Z,1021.02
2022-11-26T08:54:01.457Z,1021.06
2022-11-26T08:55:01.443Z,1021.04
2022-11-26T08:56:01.412Z,1021.07
2022-11-26T08:57:01.370Z,1021.08
2022-11-26T08:58:01.348Z,1021.09
2022-11-26T08:59:01.317Z,1021.07
2022-11-26T09:00:01.312Z,1021.12
2022-11-26T09:01:01.327Z,1021.11
2022-11-26T09:02:01.265Z,1021.14
2022-11-26T09:03:01.255Z,1021.19
2022-11-26T09:04:01.184Z,1021.17
2022-11-26T09:05:01.154Z,1021.19
2022-11-26T09:06:01.128Z,1021.27
2022-11-26T09:07:01.099Z,1021.22
2022-11-26T09:08:01.126Z,1021.26
2022-11-26T09:09:01.050Z,1021.27
2022-11-26T09:10:01.022Z,1021.26
2022-11-26T09:11:01.011Z,1021.33
2022-11-26T09:12:00.968Z,1021.28
2022-11-26T09:13:00.938Z,1021.30
2022-11-26T09:14:00.912Z,1021.31
2022-11-26T09:15:00.925Z,1021.30
2022-11-26T09:16:01.017Z,1021.33
2022-11-26T09:17:00.879Z,1021.28
2022-11-26T09:18:00.804Z,1021.24
2022-11-26T09:19:00.791Z,1021.23
2022-11-26T09:20:00.753Z,1021.26
2022-11-26T09:21:00.722Z,1021.24
2022-11-26T09:22:00.697Z,1021.25
2022-11-26T09:23:00.668Z,1021.29
2022-11-26T09:24:00.646Z,1021.30
2022-11-26T09:25:00.615Z,1021.34
2022-11-26T09:26:00.590Z,1021.30
2022-11-26T09:27:07.290Z,1021.34
2022-11-26T09:28:00.536Z,1021.32
2022-11-26T09:29:00.506Z,1021.32
2022-11-26T09:30:00.481Z,1021.30
2022-11-26T09:31:00.454Z,1021.34
2022-11-26T09:32:22.526Z,1021.43
2022-11-26T09:33:00.462Z,1021.38
2022-11-26T09:34:00.372Z,1021.43
2022-11-26T09:35:00.346Z,1021.44
2022-11-26T09:36:00.320Z,1021.43
2022-11-26T09:37:00.291Z,1021.48
2022-11-26T09:38:00.265Z,1021.42
2022-11-26T09:39:00.239Z,1021.42
2022-11-26T09:40:00.218Z,1021.46
2022-11-26T09:41:00.183Z,1021.50
2022-11-26T09:42:00.163Z,1021.46
2022-11-26T09:43:00.153Z,1021.46
2022-11-26T09:44:00.110Z,1021.43
2022-11-26T09:45:00.082Z,1021.51
2022-11-26T09:46:00.097Z,1021.50
2022-11-26T09:47:13.082Z,1021.52
2022-11-26T09:47:59.999Z,1021.51
2022-11-26T09:49:04.028Z,1021.57
2022-11-26T09:49:59.946Z,1021.54
2022-11-26T09:50:59.915Z,1021.54
2022-11-26T09:51:59.892Z,1021.55
2022-11-26T09:52:59.861Z,1021.54
2022-11-26T09:53:59.837Z,1021.57
2022-11-26T09:54:59.810Z,1021.59
2022-11-26T09:55:59.785Z,1021.56
2022-11-26T09:56:59.758Z,1021.60
2022-11-26T09:57:59.731Z,1021.57
2022-11-26T09:58:59.724Z,1021.57
2022-11-26T09:59:59.674Z,1021.52
2022-11-26T10:00:59.805Z,1021.54
2022-11-26T10:01:59.705Z,1021.51
2022-11-26T10:02:59.599Z,1021.50
2022-11-26T10:03:59.570Z,1021.49
2022-11-26T10:04:59.542Z,1021.51
2022-11-26T10:05:59.517Z,1021.51
2022-11-26T10:06:59.491Z,1021.48
2022-11-26T10:07:59.545Z,1021.48
2022-11-26T10:08:59.439Z,1021.49
2022-11-26T10:09:59.411Z,1021.53
2022-11-26T10:11:03.841Z,1021.51
2022-11-26T10:11:59.362Z,1021.54
2022-11-26T10:13:19.751Z,1021.55
2022-11-26T10:13:59.306Z,1021.52
2022-11-26T10:14:59.299Z,1021.50
2022-11-26T10:15:59.444Z,1021.49
2022-11-26T10:16:59.226Z,1021.51
2022-11-26T10:17:59.198Z,1021.51
2022-11-26T10:18:59.172Z,1021.47
2022-11-26T10:19:59.150Z,1021.49
2022-11-26T10:20:59.119Z,1021.49
2022-11-26T10:21:59.948Z,1021.49
2022-11-26T10:22:59.066Z,1021.54
2022-11-26T10:23:59.039Z,1021.51
2022-11-26T10:24:59.012Z,1021.52
2022-11-26T10:25:58.985Z,1021.55
2022-11-26T10:26:58.961Z,1021.54
2022-11-26T10:27:58.935Z,1021.56
2022-11-26T10:28:58.907Z,1021.53
2022-11-26T10:29:58.881Z,1021.57
2022-11-26T10:30:58.877Z,1021.55
2022-11-26T10:31:58.915Z,1021.52
2022-11-26T10:32:58.802Z,1021.49
2022-11-26T10:33:58.780Z,1021.53
2022-11-26T10:34:58.751Z,1021.52
2022-11-26T10:35:58.721Z,1021.55
2022-11-26T10:36:58.699Z,1021.52
2022-11-26T10:37:58.673Z,1021.52
2022-11-26T10:38:58.647Z,1021.48
2022-11-26T10:40:03.174Z,1021.51
2022-11-26T10:40:58.593Z,1021.49
2022-11-26T10:41:58.565Z,1021.48
2022-11-26T10:42:58.544Z,1021.43
2022-11-26T10:43:58.511Z,1021.50
2022-11-26T10:44:58.490Z,1021.45
2022-11-26T10:45:58.497Z,1021.44
2022-11-26T10:46:58.455Z,1021.47
2022-11-26T10:47:58.414Z,1021.40
2022-11-26T10:48:58.382Z,1021.45
2022-11-26T10:49:58.363Z,1021.40
2022-11-26T10:50:58.338Z,1021.44
2022-11-26T10:51:58.305Z,1021.42
2022-11-26T10:52:58.278Z,1021.41
2022-11-26T10:53:58.254Z,1021.37
2022-11-26T10:54:58.226Z,1021.38
2022-11-26T10:55:58.198Z,1021.38
2022-11-26T10:56:58.173Z,1021.36
2022-11-26T10:57:58.152Z,1021.38
2022-11-26T10:58:58.123Z,1021.38
2022-11-26T10:59:58.105Z,1021.41
2022-11-26T11:00:58.184Z,1021.41
2022-11-26T11:01:58.070Z,1021.45
2022-11-26T11:02:58.038Z,1021.44
2022-11-26T11:04:13.335Z,1021.45
2022-11-26T11:04:57.970Z,1021.45
2022-11-26T11:05:57.937Z,1021.41
2022-11-26T11:06:57.917Z,1021.42
2022-11-26T11:07:57.936Z,1021.40
2022-11-26T11:08:57.865Z,1021.41
2022-11-26T11:09:57.834Z,1021.41
2022-11-26T11:10:57.812Z,1021.39
2022-11-26T11:11:57.782Z,1021.41
2022-11-26T11:12:57.759Z,1021.43
2022-11-26T11:13:57.733Z,1021.40
2022-11-26T11:14:57.707Z,1021.39
2022-11-26T11:15:57.713Z,1021.36
2022-11-26T11:16:57.655Z,1021.36
2022-11-26T11:17:57.633Z,1021.34
2022-11-26T11:18:57.672Z,1021.38
2022-11-26T11:19:57.582Z,1021.34
2022-11-26T11:20:57.553Z,1021.34
2022-11-26T11:21:57.522Z,1021.34
2022-11-26T11:22:57.591Z,1021.35
2022-11-26T11:24:12.923Z,1021.30
2022-11-26T11:24:57.449Z,1021.36
2022-11-26T11:25:57.421Z,1021.32
2022-11-26T11:26:57.395Z,1021.34
2022-11-26T11:27:57.372Z,1021.31
2022-11-26T11:28:57.345Z,1021.30
2022-11-26T11:29:57.316Z,1021.22
2022-11-26T11:30:57.293Z,1021.22
2022-11-26T11:31:57.348Z,1021.21
2022-11-26T11:32:57.262Z,1021.24
2022-11-26T11:33:57.214Z,1021.27
2022-11-26T11:34:57.209Z,1021.26
2022-11-26T11:35:57.163Z,1021.27
2022-11-26T11:36:57.137Z,1021.27
2022-11-26T11:37:57.109Z,1021.29
2022-11-26T11:38:57.085Z,1021.27
2022-11-26T11:39:57.060Z,1021.25
2022-11-26T11:40:57.034Z,1021.29
2022-11-26T11:41:57.006Z,1021.29
2022-11-26T11:42:56.983Z,1021.30
2022-11-26T11:43:56.956Z,1021.26
2022-11-26T11:44:56.930Z,1021.29
2022-11-26T11:45:56.942Z,1021.26
2022-11-26T11:46:56.887Z,1021.25
2022-11-26T11:47:56.851Z,1021.27
2022-11-26T11:48:56.827Z,1021.25
2022-11-26T11:49:56.799Z,1021.26
2022-11-26T11:50:56.794Z,1021.28
2022-11-26T11:51:56.747Z,1021.28
2022-11-26T11:52:56.723Z,1021.30
2022-11-26T11:53:56.698Z,1021.29
2022-11-26T11:54:56.670Z,1021.22
2022-11-26T11:56:02.052Z,1021.25
2022-11-26T11:56:56.617Z,1021.24
2022-11-26T11:57:56.591Z,1021.25
2022-11-26T11:58:56.568Z,1021.27
2022-11-26T11:59:56.540Z,1021.26
2022-11-26T12:00:56.523Z,1021.34
2022-11-26T12:01:56.525Z,1021.28
2022-11-26T12:02:56.477Z,1021.29
2022-11-26T12:03:56.476Z,1021.30
2022-11-26T12:04:56.520Z,1021.29
2022-11-26T12:05:56.408Z,1021.31
2022-11-26T12:06:56.379Z,1021.29